sensor_id;sensor_type;location;lat;lon;timestamp;P1;durP1;ratioP1;P2;durP2;ratioP2
13374;SDS011;6756;51.354;15.754;2023-04-25T00:01:54;1.40;;;1.20;;
13374;SDS011;6756;51.354;15.754;2023-04-25T00:06:21;1.57;;;1.27;;
13374;SDS011;6756;51.354;15.754;2023-04-25T00:10:39;2.20;;;1.47;;
13374;SDS011;6756;51.354;15.754;2023-04-25T00:15:13;1.63;;;1.37;;
13374;SDS011;6756;51.354;15.754;2023-04-25T00:19:26;1.50;;;1.20;;
13374;SDS011;6756;51.354;15.754;2023-04-25T00:23:47;1.67;;;1.37;;
13374;SDS011;6756;51.354;15.754;2023-04-25T00:28:03;3.47;;;1.90;;
13374;SDS011;6756;51.354;15.754;2023-04-25T00:32:20;2.33;;;1.57;;
13374;SDS011;6756;51.354;15.754;2023-04-25T00:36:41;2.67;;;1.90;;
13374;SDS011;6756;51.354;15.754;2023-04-25T00:46:05;1.73;;;1.37;;
13374;SDS011;6756;51.354;15.754;2023-04-25T00:50:22;1.87;;;1.20;;
13374;SDS011;6756;51.354;15.754;2023-04-25T00:59:26;2.10;;;1.60;;
13374;SDS011;6756;51.354;15.754;2023-04-25T01:04:17;1.83;;;1.40;;
13374;SDS011;6756;51.354;15.754;2023-04-25T01:08:37;2.17;;;1.63;;
13374;SDS011;6756;51.354;15.754;2023-04-25T01:12:52;1.90;;;1.67;;
13374;SDS011;6756;51.354;15.754;2023-04-25T01:17:49;3.47;;;2.30;;
13374;SDS011;6756;51.354;15.754;2023-04-25T01:32:10;2.83;;;1.97;;
13374;SDS011;6756;51.354;15.754;2023-04-25T01:36:59;2.57;;;2.23;;
13374;SDS011;6756;51.354;15.754;2023-04-25T01:41:27;2.43;;;2.23;;
13374;SDS011;6756;51.354;15.754;2023-04-25T01:55:14;4.27;;;2.80;;
13374;SDS011;6756;51.354;15.754;2023-04-25T01:59:18;5.43;;;2.50;;
13374;SDS011;6756;51.354;15.754;2023-04-25T02:03:30;4.57;;;3.00;;
13374;SDS011;6756;51.354;15.754;2023-04-25T02:07:41;3.17;;;2.77;;
13374;SDS011;6756;51.354;15.754;2023-04-25T02:12:15;3.63;;;2.83;;
13374;SDS011;6756;51.354;15.754;2023-04-25T02:21:15;2.90;;;2.53;;
13374;SDS011;6756;51.354;15.754;2023-04-25T02:25:38;3.80;;;2.23;;
13374;SDS011;6756;51.354;15.754;2023-04-25T02:29:51;4.83;;;2.90;;
13374;SDS011;6756;51.354;15.754;2023-04-25T02:34:07;3.20;;;2.90;;
13374;SDS011;6756;51.354;15.754;2023-04-25T02:38:11;3.97;;;2.97;;
13374;SDS011;6756;51.354;15.754;2023-04-25T02:42:36;4.03;;;3.27;;
13374;SDS011;6756;51.354;15.754;2023-04-25T02:47:12;5.10;;;3.07;;
13374;SDS011;6756;51.354;15.754;2023-04-25T02:51:57;4.67;;;3.23;;
13374;SDS011;6756;51.354;15.754;2023-04-25T02:57:05;5.00;;;2.97;;
13374;SDS011;6756;51.354;15.754;2023-04-25T03:01:38;3.57;;;3.10;;
13374;SDS011;6756;51.354;15.754;2023-04-25T03:06:01;5.17;;;2.77;;
13374;SDS011;6756;51.354;15.754;2023-04-25T03:10:09;3.80;;;3.40;;
13374;SDS011;6756;51.354;15.754;2023-04-25T03:19:21;4.60;;;4.00;;
13374;SDS011;6756;51.354;15.754;2023-04-25T03:23:25;7.80;;;3.30;;
13374;SDS011;6756;51.354;15.754;2023-04-25T03:27:42;4.50;;;3.57;;
13374;SDS011;6756;51.354;15.754;2023-04-25T03:32:33;4.40;;;3.80;;
13374;SDS011;6756;51.354;15.754;2023-04-25T03:37:14;5.00;;;3.37;;
13374;SDS011;6756;51.354;15.754;2023-04-25T03:41:45;4.27;;;3.73;;
13374;SDS011;6756;51.354;15.754;2023-04-25T03:51:02;5.57;;;3.90;;
13374;SDS011;6756;51.354;15.754;2023-04-25T03:55:57;5.20;;;4.30;;
13374;SDS011;6756;51.354;15.754;2023-04-25T04:04:46;5.80;;;3.77;;
13374;SDS011;6756;51.354;15.754;2023-04-25T04:09:43;6.03;;;3.77;;
13374;SDS011;6756;51.354;15.754;2023-04-25T04:18:43;5.43;;;4.40;;
13374;SDS011;6756;51.354;15.754;2023-04-25T04:23:20;6.23;;;3.83;;
13374;SDS011;6756;51.354;15.754;2023-04-25T04:27:40;5.00;;;4.23;;
13374;SDS011;6756;51.354;15.754;2023-04-25T04:32:04;5.10;;;3.77;;
13374;SDS011;6756;51.354;15.754;2023-04-25T04:36:13;3.97;;;3.30;;
13374;SDS011;6756;51.354;15.754;2023-04-25T04:45:28;4.23;;;3.63;;
13374;SDS011;6756;51.354;15.754;2023-04-25T04:49:50;4.47;;;2.80;;
13374;SDS011;6756;51.354;15.754;2023-04-25T04:54:40;5.57;;;3.60;;
13374;SDS011;6756;51.354;15.754;2023-04-25T04:58:51;4.57;;;3.50;;
13374;SDS011;6756;51.354;15.754;2023-04-25T05:13:27;5.30;;;3.23;;
13374;SDS011;6756;51.354;15.754;2023-04-25T05:23:23;5.83;;;3.57;;
13374;SDS011;6756;51.354;15.754;2023-04-25T05:27:33;7.37;;;3.50;;
13374;SDS011;6756;51.354;15.754;2023-04-25T05:37:23;5.07;;;3.37;;
13374;SDS011;6756;51.354;15.754;2023-04-25T05:41:48;3.30;;;3.00;;
13374;SDS011;6756;51.354;15.754;2023-04-25T05:46:19;3.47;;;2.60;;
13374;SDS011;6756;51.354;15.754;2023-04-25T05:55:41;4.43;;;3.33;;
13374;SDS011;6756;51.354;15.754;2023-04-25T06:05:29;3.77;;;3.00;;
13374;SDS011;6756;51.354;15.754;2023-04-25T06:10:20;4.20;;;3.80;;
13374;SDS011;6756;51.354;15.754;2023-04-25T06:14:48;5.80;;;4.00;;
13374;SDS011;6756;51.354;15.754;2023-04-25T06:18:56;4.80;;;3.80;;
13374;SDS011;6756;51.354;15.754;2023-04-25T06:23:08;5.37;;;3.93;;
13374;SDS011;6756;51.354;15.754;2023-04-25T06:27:27;7.27;;;3.53;;
13374;SDS011;6756;51.354;15.754;2023-04-25T06:36:49;5.00;;;3.57;;
13374;SDS011;6756;51.354;15.754;2023-04-25T06:56:01;6.30;;;4.60;;
13374;SDS011;6756;51.354;15.754;2023-04-25T07:01:07;3.93;;;3.43;;
13374;SDS011;6756;51.354;15.754;2023-04-25T07:05:36;4.83;;;3.17;;
13374;SDS011;6756;51.354;15.754;2023-04-25T07:15:02;5.50;;;3.23;;
13374;SDS011;6756;51.354;15.754;2023-04-25T07:25:24;6.50;;;2.93;;
13374;SDS011;6756;51.354;15.754;2023-04-25T07:30:15;5.63;;;3.07;;
13374;SDS011;6756;51.354;15.754;2023-04-25T07:50:24;3.33;;;2.07;;
13374;SDS011;6756;51.354;15.754;2023-04-25T07:55:01;3.20;;;1.97;;
13374;SDS011;6756;51.354;15.754;2023-04-25T08:03:35;4.60;;;1.93;;
13374;SDS011;6756;51.354;15.754;2023-04-25T08:08:06;2.73;;;1.40;;
13374;SDS011;6756;51.354;15.754;2023-04-25T08:12:25;2.70;;;1.60;;
13374;SDS011;6756;51.354;15.754;2023-04-25T08:16:41;4.50;;;1.53;;
13374;SDS011;6756;51.354;15.754;2023-04-25T08:21:20;2.53;;;1.70;;
13374;SDS011;6756;51.354;15.754;2023-04-25T08:31:04;3.70;;;1.67;;
13374;SDS011;6756;51.354;15.754;2023-04-25T08:40:41;2.67;;;1.37;;
13374;SDS011;6756;51.354;15.754;2023-04-25T08:45:18;6.43;;;1.43;;
13374;SDS011;6756;51.354;15.754;2023-04-25T08:54:53;2.43;;;1.37;;
13374;SDS011;6756;51.354;15.754;2023-04-25T09:18:41;1.47;;;0.83;;
13374;SDS011;6756;51.354;15.754;2023-04-25T09:23:15;1.40;;;1.07;;
13374;SDS011;6756;51.354;15.754;2023-04-25T09:28:04;3.00;;;0.87;;
13374;SDS011;6756;51.354;15.754;2023-04-25T09:32:22;1.50;;;1.30;;
13374;SDS011;6756;51.354;15.754;2023-04-25T09:46:53;2.63;;;1.47;;
13374;SDS011;6756;51.354;15.754;2023-04-25T09:51:13;2.33;;;1.33;;
13374;SDS011;6756;51.354;15.754;2023-04-25T09:55:32;1.13;;;1.00;;
13374;SDS011;6756;51.354;15.754;2023-04-25T10:04:16;2.10;;;1.03;;
13374;SDS011;6756;51.354;15.754;2023-04-25T10:17:26;2.33;;;1.20;;
13374;SDS011;6756;51.354;15.754;2023-04-25T10:22:13;1.60;;;1.40;;
13374;SDS011;6756;51.354;15.754;2023-04-25T10:26:38;1.33;;;1.20;;
13374;SDS011;6756;51.354;15.754;2023-04-25T10:35:16;2.60;;;1.50;;
13374;SDS011;6756;51.354;15.754;2023-04-25T10:39:59;2.97;;;1.50;;
13374;SDS011;6756;51.354;15.754;2023-04-25T10:44:37;2.73;;;1.70;;
13374;SDS011;6756;51.354;15.754;2023-04-25T10:49:04;2.13;;;1.20;;
13374;SDS011;6756;51.354;15.754;2023-04-25T10:57:44;2.80;;;1.30;;
13374;SDS011;6756;51.354;15.754;2023-04-25T11:02:18;3.00;;;1.40;;
13374;SDS011;6756;51.354;15.754;2023-04-25T11:06:29;2.87;;;1.50;;
13374;SDS011;6756;51.354;15.754;2023-04-25T11:11:15;4.40;;;1.30;;
13374;SDS011;6756;51.354;15.754;2023-04-25T11:15:19;2.97;;;1.47;;
13374;SDS011;6756;51.354;15.754;2023-04-25T11:19:56;2.03;;;1.30;;
13374;SDS011;6756;51.354;15.754;2023-04-25T11:24:39;2.10;;;1.27;;
13374;SDS011;6756;51.354;15.754;2023-04-25T11:29:09;2.30;;;1.10;;
13374;SDS011;6756;51.354;15.754;2023-04-25T11:33:44;2.17;;;1.30;;
13374;SDS011;6756;51.354;15.754;2023-04-25T11:38:17;1.70;;;1.30;;
13374;SDS011;6756;51.354;15.754;2023-04-25T11:42:34;2.13;;;1.40;;
13374;SDS011;6756;51.354;15.754;2023-04-25T11:47:18;1.10;;;1.00;;
13374;SDS011;6756;51.354;15.754;2023-04-25T12:00:31;3.40;;;1.17;;
13374;SDS011;6756;51.354;15.754;2023-04-25T12:04:42;1.93;;;1.40;;
13374;SDS011;6756;51.354;15.754;2023-04-25T12:09:07;1.13;;;0.83;;
13374;SDS011;6756;51.354;15.754;2023-04-25T12:13:45;2.53;;;1.10;;
13374;SDS011;6756;51.354;15.754;2023-04-25T12:18:00;3.20;;;1.80;;
13374;SDS011;6756;51.354;15.754;2023-04-25T12:22:23;2.30;;;1.40;;
13374;SDS011;6756;51.354;15.754;2023-04-25T12:26:58;3.93;;;1.30;;
13374;SDS011;6756;51.354;15.754;2023-04-25T12:44:27;4.57;;;1.70;;
13374;SDS011;6756;51.354;15.754;2023-04-25T12:48:34;1.90;;;0.87;;
13374;SDS011;6756;51.354;15.754;2023-04-25T12:52:38;1.93;;;1.17;;
13374;SDS011;6756;51.354;15.754;2023-04-25T12:56:55;3.07;;;1.30;;
13374;SDS011;6756;51.354;15.754;2023-04-25T13:06:21;1.73;;;1.30;;
13374;SDS011;6756;51.354;15.754;2023-04-25T13:20:59;2.13;;;1.57;;
13374;SDS011;6756;51.354;15.754;2023-04-25T13:30:01;2.90;;;1.97;;
13374;SDS011;6756;51.354;15.754;2023-04-25T13:43:39;4.37;;;2.37;;
13374;SDS011;6756;51.354;15.754;2023-04-25T13:48:14;4.30;;;2.23;;
13374;SDS011;6756;51.354;15.754;2023-04-25T13:52:16;2.60;;;2.33;;
13374;SDS011;6756;51.354;15.754;2023-04-25T13:57:07;4.37;;;2.17;;
13374;SDS011;6756;51.354;15.754;2023-04-25T14:01:39;2.17;;;1.90;;
13374;SDS011;6756;51.354;15.754;2023-04-25T14:06:55;2.47;;;2.03;;
13374;SDS011;6756;51.354;15.754;2023-04-25T14:16:29;2.43;;;2.00;;
13374;SDS011;6756;51.354;15.754;2023-04-25T14:21:30;3.50;;;2.07;;
13374;SDS011;6756;51.354;15.754;2023-04-25T14:25:46;2.83;;;1.60;;
13374;SDS011;6756;51.354;15.754;2023-04-25T14:35:26;3.63;;;2.10;;
13374;SDS011;6756;51.354;15.754;2023-04-25T14:39:58;2.70;;;1.97;;
13374;SDS011;6756;51.354;15.754;2023-04-25T14:49:33;3.83;;;1.60;;
13374;SDS011;6756;51.354;15.754;2023-04-25T14:53:41;2.73;;;1.70;;
13374;SDS011;6756;51.354;15.754;2023-04-25T15:02:24;4.87;;;2.30;;
13374;SDS011;6756;51.354;15.754;2023-04-25T15:07:00;5.80;;;2.13;;
13374;SDS011;6756;51.354;15.754;2023-04-25T15:11:33;3.90;;;2.10;;
13374;SDS011;6756;51.354;15.754;2023-04-25T15:15:59;3.60;;;1.90;;
13374;SDS011;6756;51.354;15.754;2023-04-25T15:25:12;2.83;;;2.20;;
13374;SDS011;6756;51.354;15.754;2023-04-25T15:29:13;4.00;;;2.03;;
13374;SDS011;6756;51.354;15.754;2023-04-25T15:38:01;4.30;;;2.00;;
13374;SDS011;6756;51.354;15.754;2023-04-25T15:42:21;5.20;;;2.20;;
13374;SDS011;6756;51.354;15.754;2023-04-25T15:46:37;3.77;;;2.10;;
13374;SDS011;6756;51.354;15.754;2023-04-25T15:51:19;7.73;;;2.57;;
13374;SDS011;6756;51.354;15.754;2023-04-25T16:00:04;4.27;;;2.70;;
13374;SDS011;6756;51.354;15.754;2023-04-25T16:04:45;6.63;;;2.63;;
13374;SDS011;6756;51.354;15.754;2023-04-25T16:13:37;5.80;;;2.20;;
13374;SDS011;6756;51.354;15.754;2023-04-25T16:17:44;11.27;;;2.60;;
13374;SDS011;6756;51.354;15.754;2023-04-25T16:22:23;4.23;;;2.23;;
13374;SDS011;6756;51.354;15.754;2023-04-25T16:26:39;4.73;;;1.70;;
13374;SDS011;6756;51.354;15.754;2023-04-25T16:35:34;4.00;;;2.07;;
13374;SDS011;6756;51.354;15.754;2023-04-25T16:40:04;7.80;;;2.77;;
13374;SDS011;6756;51.354;15.754;2023-04-25T16:44:23;5.27;;;2.30;;
13374;SDS011;6756;51.354;15.754;2023-04-25T16:48:33;8.53;;;2.97;;
13374;SDS011;6756;51.354;15.754;2023-04-25T16:53:21;13.10;;;4.20;;
13374;SDS011;6756;51.354;15.754;2023-04-25T16:58:20;7.70;;;2.20;;
13374;SDS011;6756;51.354;15.754;2023-04-25T17:02:39;6.90;;;2.30;;
13374;SDS011;6756;51.354;15.754;2023-04-25T17:06:59;6.17;;;2.63;;
13374;SDS011;6756;51.354;15.754;2023-04-25T17:21:27;9.03;;;2.50;;
13374;SDS011;6756;51.354;15.754;2023-04-25T17:25:51;7.63;;;3.33;;
13374;SDS011;6756;51.354;15.754;2023-04-25T17:35:53;7.47;;;3.27;;
13374;SDS011;6756;51.354;15.754;2023-04-25T17:39:57;6.63;;;2.57;;
13374;SDS011;6756;51.354;15.754;2023-04-25T17:44:04;7.77;;;2.40;;
13374;SDS011;6756;51.354;15.754;2023-04-25T17:48:47;13.27;;;3.47;;
13374;SDS011;6756;51.354;15.754;2023-04-25T17:53:15;5.50;;;2.23;;
13374;SDS011;6756;51.354;15.754;2023-04-25T17:57:51;8.80;;;2.27;;
13374;SDS011;6756;51.354;15.754;2023-04-25T18:01:58;8.10;;;2.40;;
13374;SDS011;6756;51.354;15.754;2023-04-25T18:06:26;6.00;;;2.33;;
13374;SDS011;6756;51.354;15.754;2023-04-25T18:10:38;5.17;;;2.27;;
13374;SDS011;6756;51.354;15.754;2023-04-25T18:14:48;7.00;;;2.53;;
13374;SDS011;6756;51.354;15.754;2023-04-25T18:24:13;6.50;;;2.73;;
13374;SDS011;6756;51.354;15.754;2023-04-25T18:28:47;6.97;;;2.17;;
13374;SDS011;6756;51.354;15.754;2023-04-25T18:33:35;5.17;;;1.97;;
13374;SDS011;6756;51.354;15.754;2023-04-25T18:38:20;2.80;;;1.90;;
13374;SDS011;6756;51.354;15.754;2023-04-25T18:42:24;4.30;;;2.13;;
13374;SDS011;6756;51.354;15.754;2023-04-25T18:47:17;4.90;;;2.17;;
13374;SDS011;6756;51.354;15.754;2023-04-25T18:56:57;5.60;;;2.20;;
13374;SDS011;6756;51.354;15.754;2023-04-25T19:06:32;2.50;;;1.43;;
13374;SDS011;6756;51.354;15.754;2023-04-25T19:11:01;5.03;;;2.67;;
13374;SDS011;6756;51.354;15.754;2023-04-25T19:15:48;10.37;;;5.27;;
13374;SDS011;6756;51.354;15.754;2023-04-25T19:20:20;5.60;;;2.37;;
13374;SDS011;6756;51.354;15.754;2023-04-25T19:29:29;4.67;;;2.50;;
13374;SDS011;6756;51.354;15.754;2023-04-25T19:33:49;6.83;;;2.73;;
13374;SDS011;6756;51.354;15.754;2023-04-25T19:38:12;7.27;;;2.53;;
13374;SDS011;6756;51.354;15.754;2023-04-25T19:42:26;5.57;;;2.33;;
13374;SDS011;6756;51.354;15.754;2023-04-25T19:46:34;7.17;;;3.00;;
13374;SDS011;6756;51.354;15.754;2023-04-25T19:50:48;5.20;;;2.27;;
13374;SDS011;6756;51.354;15.754;2023-04-25T19:54:54;5.80;;;2.73;;
13374;SDS011;6756;51.354;15.754;2023-04-25T19:59:57;4.40;;;3.00;;
13374;SDS011;6756;51.354;15.754;2023-04-25T20:04:33;11.27;;;3.47;;
13374;SDS011;6756;51.354;15.754;2023-04-25T20:08:42;8.20;;;3.40;;
13374;SDS011;6756;51.354;15.754;2023-04-25T20:12:48;10.33;;;3.83;;
13374;SDS011;6756;51.354;15.754;2023-04-25T20:16:59;7.60;;;3.53;;
13374;SDS011;6756;51.354;15.754;2023-04-25T20:21:31;5.57;;;2.83;;
13374;SDS011;6756;51.354;15.754;2023-04-25T20:30:37;8.37;;;2.63;;
13374;SDS011;6756;51.354;15.754;2023-04-25T20:39:25;7.00;;;2.93;;
13374;SDS011;6756;51.354;15.754;2023-04-25T20:43:38;9.70;;;2.53;;
13374;SDS011;6756;51.354;15.754;2023-04-25T20:47:54;5.17;;;2.70;;
13374;SDS011;6756;51.354;15.754;2023-04-25T20:52:13;4.07;;;2.53;;
13374;SDS011;6756;51.354;15.754;2023-04-25T20:56:18;8.33;;;2.53;;
13374;SDS011;6756;51.354;15.754;2023-04-25T21:00:29;6.20;;;2.50;;
13374;SDS011;6756;51.354;15.754;2023-04-25T21:04:44;6.60;;;2.80;;
13374;SDS011;6756;51.354;15.754;2023-04-25T21:08:53;8.17;;;2.53;;
13374;SDS011;6756;51.354;15.754;2023-04-25T21:13:11;5.90;;;2.33;;
13374;SDS011;6756;51.354;15.754;2023-04-25T21:17:43;6.70;;;3.00;;
13374;SDS011;6756;51.354;15.754;2023-04-25T21:26:31;3.40;;;2.40;;
13374;SDS011;6756;51.354;15.754;2023-04-25T21:30:45;5.43;;;3.03;;
13374;SDS011;6756;51.354;15.754;2023-04-25T21:34:55;5.13;;;2.17;;
13374;SDS011;6756;51.354;15.754;2023-04-25T21:43:46;9.17;;;3.57;;
13374;SDS011;6756;51.354;15.754;2023-04-25T21:48:38;11.37;;;2.50;;
13374;SDS011;6756;51.354;15.754;2023-04-25T21:52:42;6.40;;;2.97;;
13374;SDS011;6756;51.354;15.754;2023-04-25T21:57:01;4.20;;;2.27;;
13374;SDS011;6756;51.354;15.754;2023-04-25T22:01:16;6.23;;;2.63;;
13374;SDS011;6756;51.354;15.754;2023-04-25T22:05:18;6.20;;;2.50;;
13374;SDS011;6756;51.354;15.754;2023-04-25T22:09:42;7.17;;;2.50;;
13374;SDS011;6756;51.354;15.754;2023-04-25T22:14:09;9.73;;;2.37;;
13374;SDS011;6756;51.354;15.754;2023-04-25T22:18:14;6.53;;;2.80;;
13374;SDS011;6756;51.354;15.754;2023-04-25T22:22:21;6.90;;;2.77;;
13374;SDS011;6756;51.354;15.754;2023-04-25T22:26:37;11.97;;;2.47;;
13374;SDS011;6756;51.354;15.754;2023-04-25T22:30:40;5.10;;;2.30;;
13374;SDS011;6756;51.354;15.754;2023-04-25T22:34:48;7.87;;;2.77;;
13374;SDS011;6756;51.354;15.754;2023-04-25T22:39:02;7.97;;;2.80;;
13374;SDS011;6756;51.354;15.754;2023-04-25T22:43:19;5.20;;;2.67;;
13374;SDS011;6756;51.354;15.754;2023-04-25T22:47:39;5.77;;;2.50;;
13374;SDS011;6756;51.354;15.754;2023-04-25T22:51:46;4.27;;;2.00;;
13374;SDS011;6756;51.354;15.754;2023-04-25T22:55:56;3.67;;;2.20;;
13374;SDS011;6756;51.354;15.754;2023-04-25T23:00:18;4.73;;;2.57;;
13374;SDS011;6756;51.354;15.754;2023-04-25T23:04:31;10.53;;;2.23;;
13374;SDS011;6756;51.354;15.754;2023-04-25T23:08:42;5.27;;;1.60;;
13374;SDS011;6756;51.354;15.754;2023-04-25T23:12:55;4.70;;;2.53;;
13374;SDS011;6756;51.354;15.754;2023-04-25T23:21:32;4.77;;;2.13;;
13374;SDS011;6756;51.354;15.754;2023-04-25T23:30:05;5.83;;;2.67;;
13374;SDS011;6756;51.354;15.754;2023-04-25T23:34:33;8.33;;;2.90;;
13374;SDS011;6756;51.354;15.754;2023-04-25T23:38:34;3.57;;;2.10;;
13374;SDS011;6756;51.354;15.754;2023-04-25T23:42:41;5.50;;;2.60;;
13374;SDS011;6756;51.354;15.754;2023-04-25T23:47:16;7.07;;;2.73;;
13374;SDS011;6756;51.354;15.754;2023-04-25T23:51:20;8.23;;;2.63;;
13374;SDS011;6756;51.354;15.754;2023-04-25T23:55:27;7.43;;;3.13;;
13374;SDS011;6756;51.354;15.754;2023-04-25T23:59:54;3.73;;;2.30;;
